sensor_id;sensor_type;location;lat;lon;timestamp;pressure;altitude;pressure_sealevel;temperature;humidity
7376;BME280;3728;42.266;24.944;2023-05-20T00:02:16;99789.38;;;15.07;100.00
7376;BME280;3728;42.266;24.944;2023-05-20T00:04:43;99787.38;;;15.04;100.00
7376;BME280;3728;42.266;24.944;2023-05-20T00:07:11;99786.16;;;15.01;100.00
7376;BME280;3728;42.266;24.944;2023-05-20T00:09:38;99779.53;;;14.95;100.00
7376;BME280;3728;42.266;24.944;2023-05-20T00:12:06;99779.84;;;14.94;100.00
7376;BME280;3728;42.266;24.944;2023-05-20T00:14:34;99785.19;;;14.85;100.00
7376;BME280;3728;42.266;24.944;2023-05-20T00:17:01;99778.94;;;14.69;100.00
7376;BME280;3728;42.266;24.944;2023-05-20T00:19:29;99772.72;;;14.74;100.00
7376;BME280;3728;42.266;24.944;2023-05-20T00:21:57;99754.97;;;14.83;100.00
7376;BME280;3728;42.266;24.944;2023-05-20T00:24:25;99756.97;;;14.86;100.00
7376;BME280;3728;42.266;24.944;2023-05-20T00:26:53;99746.66;;;14.72;100.00
7376;BME280;3728;42.266;24.944;2023-05-20T00:29:21;99750.66;;;14.58;100.00
7376;BME280;3728;42.266;24.944;2023-05-20T00:31:48;99743.91;;;14.69;100.00
7376;BME280;3728;42.266;24.944;2023-05-20T00:34:16;99745.03;;;14.80;100.00
7376;BME280;3728;42.266;24.944;2023-05-20T00:36:46;99748.19;;;14.73;100.00
7376;BME280;3728;42.266;24.944;2023-05-20T00:39:13;99743.91;;;14.69;100.00
7376;BME280;3728;42.266;24.944;2023-05-20T00:41:41;99745.81;;;14.60;100.00
7376;BME280;3728;42.266;24.944;2023-05-20T00:44:08;99742.84;;;14.61;100.00
7376;BME280;3728;42.266;24.944;2023-05-20T00:46:36;99745.59;;;14.44;100.00
7376;BME280;3728;42.266;24.944;2023-05-20T00:49:04;99744.69;;;14.40;100.00
7376;BME280;3728;42.266;24.944;2023-05-20T00:51:32;99743.66;;;14.53;100.00
7376;BME280;3728;42.266;24.944;2023-05-20T00:54:00;99744.69;;;14.40;100.00
7376;BME280;3728;42.266;24.944;2023-05-20T00:56:28;99747.91;;;14.46;100.00
7376;BME280;3728;42.266;24.944;2023-05-20T00:58:56;99746.09;;;14.37;100.00
7376;BME280;3728;42.266;24.944;2023-05-20T01:01:24;99743.28;;;14.43;100.00
7376;BME280;3728;42.266;24.944;2023-05-20T01:03:51;99743.13;;;14.39;100.00
7376;BME280;3728;42.266;24.944;2023-05-20T01:06:19;99736.13;;;14.14;100.00
7376;BME280;3728;42.266;24.944;2023-05-20T01:08:47;99732.69;;;14.13;100.00
7376;BME280;3728;42.266;24.944;2023-05-20T01:11:36;99732.94;;;14.29;100.00
7376;BME280;3728;42.266;24.944;2023-05-20T01:14:09;99724.31;;;14.20;100.00
7376;BME280;3728;42.266;24.944;2023-05-20T01:16:38;99727.53;;;14.25;100.00
7376;BME280;3728;42.266;24.944;2023-05-20T01:19:18;99721.03;;;14.23;100.00
7376;BME280;3728;42.266;24.944;2023-05-20T01:21:55;99717.94;;;14.21;100.00
7376;BME280;3728;42.266;24.944;2023-05-20T01:24:24;99713.19;;;14.14;100.00
7376;BME280;3728;42.266;24.944;2023-05-20T01:26:52;99719.75;;;14.08;100.00
7376;BME280;3728;42.266;24.944;2023-05-20T01:29:19;99723.91;;;14.09;100.00
7376;BME280;3728;42.266;24.944;2023-05-20T01:31:47;99725.06;;;14.20;100.00
7376;BME280;3728;42.266;24.944;2023-05-20T01:34:16;99722.16;;;14.13;100.00
7376;BME280;3728;42.266;24.944;2023-05-20T01:36:45;99723.44;;;14.07;100.00
7376;BME280;3728;42.266;24.944;2023-05-20T01:39:13;99711.63;;;14.13;100.00
7376;BME280;3728;42.266;24.944;2023-05-20T01:41:40;99706.38;;;14.13;100.00
7376;BME280;3728;42.266;24.944;2023-05-20T01:44:08;99702.13;;;14.29;100.00
7376;BME280;3728;42.266;24.944;2023-05-20T01:46:36;99705.84;;;14.28;100.00
7376;BME280;3728;42.266;24.944;2023-05-20T01:49:03;99703.94;;;14.37;100.00
7376;BME280;3728;42.266;24.944;2023-05-20T01:51:31;99708.78;;;14.27;100.00
7376;BME280;3728;42.266;24.944;2023-05-20T01:54:01;99709.53;;;14.27;100.00
7376;BME280;3728;42.266;24.944;2023-05-20T01:56:29;99703.63;;;14.10;100.00
7376;BME280;3728;42.266;24.944;2023-05-20T01:58:58;99711.28;;;14.23;100.00
7376;BME280;3728;42.266;24.944;2023-05-20T02:01:25;99712.56;;;14.17;100.00
7376;BME280;3728;42.266;24.944;2023-05-20T02:03:53;99709.28;;;14.20;100.00
7376;BME280;3728;42.266;24.944;2023-05-20T02:06:21;99712.22;;;14.19;100.00
7376;BME280;3728;42.266;24.944;2023-05-20T02:08:49;99710.66;;;14.26;100.00
7376;BME280;3728;42.266;24.944;2023-05-20T02:11:17;99709.28;;;14.20;100.00
7376;BME280;3728;42.266;24.944;2023-05-20T02:13:45;99702.28;;;14.24;100.00
7376;BME280;3728;42.266;24.944;2023-05-20T02:16:12;99697.75;;;14.04;100.00
7376;BME280;3728;42.266;24.944;2023-05-20T02:18:40;99694.66;;;14.02;100.00
7376;BME280;3728;42.266;24.944;2023-05-20T02:21:09;99693.16;;;13.93;100.00
7376;BME280;3728;42.266;24.944;2023-05-20T02:23:36;99693.59;;;14.03;100.00
7376;BME280;3728;42.266;24.944;2023-05-20T02:26:04;99693.03;;;14.18;100.00
7376;BME280;3728;42.266;24.944;2023-05-20T02:28:35;99701.59;;;14.07;100.00
7376;BME280;3728;42.266;24.944;2023-05-20T02:31:06;99707.81;;;14.02;100.00
7376;BME280;3728;42.266;24.944;2023-05-20T02:33:33;99705.31;;;13.77;100.00
7376;BME280;3728;42.266;24.944;2023-05-20T02:36:01;99696.63;;;13.76;100.00
7376;BME280;3728;42.266;24.944;2023-05-20T02:38:28;99709.50;;;13.69;100.00
7376;BME280;3728;42.266;24.944;2023-05-20T02:40:57;99708.72;;;13.77;100.00
7376;BME280;3728;42.266;24.944;2023-05-20T02:43:25;99713.31;;;13.89;100.00
7376;BME280;3728;42.266;24.944;2023-05-20T02:45:52;99718.09;;;13.95;100.00
7376;BME280;3728;42.266;24.944;2023-05-20T02:48:20;99717.28;;;14.03;100.00
7376;BME280;3728;42.266;24.944;2023-05-20T02:50:47;99729.78;;;14.06;100.00
7376;BME280;3728;42.266;24.944;2023-05-20T02:53:15;99734.31;;;14.06;100.00
7376;BME280;3728;42.266;24.944;2023-05-20T02:55:44;99729.59;;;14.20;100.00
7376;BME280;3728;42.266;24.944;2023-05-20T02:58:16;99733.47;;;14.22;100.00
7376;BME280;3728;42.266;24.944;2023-05-20T03:00:43;99736.41;;;14.21;100.00
7376;BME280;3728;42.266;24.944;2023-05-20T03:03:11;99741.81;;;14.24;100.00
7376;BME280;3728;42.266;24.944;2023-05-20T03:05:39;99744.84;;;14.44;100.00
7376;BME280;3728;42.266;24.944;2023-05-20T03:08:09;99749.78;;;14.45;100.00
7376;BME280;3728;42.266;24.944;2023-05-20T03:10:37;99749.84;;;14.36;100.00
7376;BME280;3728;42.266;24.944;2023-05-20T03:13:06;99750.66;;;14.20;100.00
7376;BME280;3728;42.266;24.944;2023-05-20T03:15:37;99764.19;;;14.10;100.00
7376;BME280;3728;42.266;24.944;2023-05-20T03:18:05;99760.16;;;14.12;100.00
7376;BME280;3728;42.266;24.944;2023-05-20T03:20:35;99764.22;;;14.01;100.00
7376;BME280;3728;42.266;24.944;2023-05-20T03:23:05;99760.16;;;14.12;100.00
7376;BME280;3728;42.266;24.944;2023-05-20T03:25:35;99761.59;;;14.01;100.00
7376;BME280;3728;42.266;24.944;2023-05-20T03:28:04;99754.22;;;13.86;100.00
7376;BME280;3728;42.266;24.944;2023-05-20T03:30:34;99753.94;;;14.46;100.00
7376;BME280;3728;42.266;24.944;2023-05-20T03:33:02;99753.31;;;14.70;100.00
7376;BME280;3728;42.266;24.944;2023-05-20T03:35:34;99748.53;;;14.72;100.00
7376;BME280;3728;42.266;24.944;2023-05-20T03:38:03;99746.31;;;14.53;100.00
7376;BME280;3728;42.266;24.944;2023-05-20T03:40:32;99756.59;;;14.08;100.00
7376;BME280;3728;42.266;24.944;2023-05-20T03:43:00;99756.34;;;13.93;100.00
7376;BME280;3728;42.266;24.944;2023-05-20T03:45:28;99756.22;;;13.89;100.00
7376;BME280;3728;42.266;24.944;2023-05-20T03:48:13;99756.28;;;14.10;100.00
7376;BME280;3728;42.266;24.944;2023-05-20T03:50:41;99748.84;;;14.12;100.00
7376;BME280;3728;42.266;24.944;2023-05-20T03:53:09;99745.75;;;13.72;100.00
7376;BME280;3728;42.266;24.944;2023-05-20T03:55:39;99743.31;;;13.50;100.00
7376;BME280;3728;42.266;24.944;2023-05-20T03:58:10;99745.78;;;13.38;100.00
7376;BME280;3728;42.266;24.944;2023-05-20T04:00:39;99747.38;;;13.30;100.00
7376;BME280;3728;42.266;24.944;2023-05-20T04:03:07;99740.50;;;13.55;100.00
7376;BME280;3728;42.266;24.944;2023-05-20T04:05:36;99749.63;;;13.57;100.00
7376;BME280;3728;42.266;24.944;2023-05-20T04:08:11;99747.88;;;13.87;100.00
7376;BME280;3728;42.266;24.944;2023-05-20T04:10:42;99742.00;;;13.82;100.00
7376;BME280;3728;42.266;24.944;2023-05-20T04:13:10;99745.41;;;13.82;100.00
7376;BME280;3728;42.266;24.944;2023-05-20T04:15:39;99748.22;;;13.68;100.00
7376;BME280;3728;42.266;24.944;2023-05-20T04:18:07;99756.59;;;13.62;100.00
7376;BME280;3728;42.266;24.944;2023-05-20T04:20:36;99766.66;;;13.60;100.00
7376;BME280;3728;42.266;24.944;2023-05-20T04:23:04;99762.59;;;13.80;100.00
7376;BME280;3728;42.266;24.944;2023-05-20T04:25:32;99769.34;;;13.98;100.00
7376;BME280;3728;42.266;24.944;2023-05-20T04:28:03;99774.69;;;14.18;100.00
7376;BME280;3728;42.266;24.944;2023-05-20T04:30:30;99776.66;;;14.30;100.00
7376;BME280;3728;42.266;24.944;2023-05-20T04:32:59;99785.22;;;14.56;100.00
7376;BME280;3728;42.266;24.944;2023-05-20T04:35:28;99794.38;;;14.79;100.00
7376;BME280;3728;42.266;24.944;2023-05-20T04:38:00;99797.47;;;15.02;100.00
7376;BME280;3728;42.266;24.944;2023-05-20T04:40:28;99796.16;;;15.29;100.00
7376;BME280;3728;42.266;24.944;2023-05-20T04:42:58;99799.56;;;15.70;100.00
7376;BME280;3728;42.266;24.944;2023-05-20T04:45:26;99796.56;;;15.72;100.00
7376;BME280;3728;42.266;24.944;2023-05-20T04:47:54;99795.34;;;15.69;100.00
7376;BME280;3728;42.266;24.944;2023-05-20T04:50:21;99799.88;;;15.81;100.00
7376;BME280;3728;42.266;24.944;2023-05-20T04:52:49;99800.78;;;15.85;100.00
7376;BME280;3728;42.266;24.944;2023-05-20T04:55:17;99805.13;;;16.14;100.00
7376;BME280;3728;42.266;24.944;2023-05-20T04:57:47;99817.13;;;16.35;100.00
7376;BME280;3728;42.266;24.944;2023-05-20T05:00:15;99806.34;;;16.28;100.00
7376;BME280;3728;42.266;24.944;2023-05-20T05:02:43;99802.72;;;16.33;100.00
7376;BME280;3728;42.266;24.944;2023-05-20T05:05:11;99797.84;;;16.47;100.00
7376;BME280;3728;42.266;24.944;2023-05-20T05:07:39;99796.09;;;16.63;98.34
7376;BME280;3728;42.266;24.944;2023-05-20T05:10:06;99793.66;;;16.82;95.65
7376;BME280;3728;42.266;24.944;2023-05-20T05:12:34;99804.56;;;16.93;95.93
7376;BME280;3728;42.266;24.944;2023-05-20T05:15:02;99803.97;;;16.99;95.55
7376;BME280;3728;42.266;24.944;2023-05-20T05:17:30;99807.25;;;17.08;92.78
7376;BME280;3728;42.266;24.944;2023-05-20T05:19:59;99805.06;;;17.38;91.26
7376;BME280;3728;42.266;24.944;2023-05-20T05:22:30;99804.25;;;17.50;90.63
7376;BME280;3728;42.266;24.944;2023-05-20T05:24:58;99799.59;;;17.59;89.83
7376;BME280;3728;42.266;24.944;2023-05-20T05:27:25;99797.88;;;17.39;92.21
7376;BME280;3728;42.266;24.944;2023-05-20T05:29:53;99794.16;;;17.67;91.22
7376;BME280;3728;42.266;24.944;2023-05-20T05:32:21;99798.31;;;17.41;92.55
7376;BME280;3728;42.266;24.944;2023-05-20T05:34:49;99798.97;;;17.10;94.67
7376;BME280;3728;42.266;24.944;2023-05-20T05:37:17;99806.09;;;16.94;95.88
7376;BME280;3728;42.266;24.944;2023-05-20T05:39:44;99807.53;;;16.91;96.99
7376;BME280;3728;42.266;24.944;2023-05-20T05:42:12;99809.94;;;16.96;97.37
7376;BME280;3728;42.266;24.944;2023-05-20T05:44:40;99825.16;;;16.99;99.10
7376;BME280;3728;42.266;24.944;2023-05-20T05:47:07;99819.03;;;17.23;100.00
7376;BME280;3728;42.266;24.944;2023-05-20T05:49:35;99825.13;;;17.51;94.88
7376;BME280;3728;42.266;24.944;2023-05-20T05:52:03;99820.00;;;17.58;91.96
7376;BME280;3728;42.266;24.944;2023-05-20T05:54:31;99823.47;;;17.47;92.89
7376;BME280;3728;42.266;24.944;2023-05-20T05:56:59;99819.75;;;17.36;94.00
7376;BME280;3728;42.266;24.944;2023-05-20T05:59:29;99812.94;;;17.50;92.42
7376;BME280;3728;42.266;24.944;2023-05-20T06:01:57;99811.97;;;17.55;92.75
7376;BME280;3728;42.266;24.944;2023-05-20T06:04:24;99805.94;;;17.42;93.39
7376;BME280;3728;42.266;24.944;2023-05-20T06:06:54;99810.63;;;17.33;93.71
7376;BME280;3728;42.266;24.944;2023-05-20T06:09:22;99813.09;;;17.42;94.46
7376;BME280;3728;42.266;24.944;2023-05-20T06:11:51;99814.19;;;17.41;93.80
7376;BME280;3728;42.266;24.944;2023-05-20T06:14:19;99805.75;;;17.35;95.06
7376;BME280;3728;42.266;24.944;2023-05-20T06:16:47;99813.09;;;17.42;96.17
7376;BME280;3728;42.266;24.944;2023-05-20T06:19:16;99808.81;;;17.37;95.68
7376;BME280;3728;42.266;24.944;2023-05-20T06:21:44;99819.19;;;17.42;97.33
7376;BME280;3728;42.266;24.944;2023-05-20T06:24:12;99815.84;;;17.45;97.80
7376;BME280;3728;42.266;24.944;2023-05-20T06:26:39;99818.94;;;17.47;97.08
7376;BME280;3728;42.266;24.944;2023-05-20T06:29:07;99811.53;;;17.53;96.91
7376;BME280;3728;42.266;24.944;2023-05-20T06:31:34;99808.25;;;17.71;94.17
7376;BME280;3728;42.266;24.944;2023-05-20T06:34:02;99813.28;;;17.76;94.78
7376;BME280;3728;42.266;24.944;2023-05-20T06:36:30;99811.19;;;17.82;94.78
7376;BME280;3728;42.266;24.944;2023-05-20T06:38:59;99814.06;;;17.93;95.35
7376;BME280;3728;42.266;24.944;2023-05-20T06:41:27;99805.63;;;18.03;92.44
7376;BME280;3728;42.266;24.944;2023-05-20T06:43:55;99813.16;;;18.16;90.91
7376;BME280;3728;42.266;24.944;2023-05-20T06:46:49;99807.00;;;18.12;91.59
7376;BME280;3728;42.266;24.944;2023-05-20T06:49:17;99805.72;;;18.06;91.29
7376;BME280;3728;42.266;24.944;2023-05-20T06:51:48;99798.13;;;18.20;93.36
7376;BME280;3728;42.266;24.944;2023-05-20T06:54:16;99795.09;;;18.53;91.82
7376;BME280;3728;42.266;24.944;2023-05-20T06:56:44;99801.50;;;18.87;91.14
7376;BME280;3728;42.266;24.944;2023-05-20T06:59:13;99797.91;;;19.14;87.17
7376;BME280;3728;42.266;24.944;2023-05-20T07:01:41;99799.72;;;19.29;85.26
7376;BME280;3728;42.266;24.944;2023-05-20T07:04:10;99798.13;;;19.44;85.53
7376;BME280;3728;42.266;24.944;2023-05-20T07:06:40;99803.13;;;19.91;83.33
7376;BME280;3728;42.266;24.944;2023-05-20T07:09:08;99799.81;;;20.20;83.92
7376;BME280;3728;42.266;24.944;2023-05-20T07:11:36;99802.34;;;20.58;78.70
7376;BME280;3728;42.266;24.944;2023-05-20T07:14:04;99806.00;;;20.76;76.41
7376;BME280;3728;42.266;24.944;2023-05-20T07:16:34;99801.75;;;21.01;73.90
7376;BME280;3728;42.266;24.944;2023-05-20T07:19:03;99798.72;;;21.33;74.82
7376;BME280;3728;42.266;24.944;2023-05-20T07:21:32;99801.88;;;21.82;68.34
7376;BME280;3728;42.266;24.944;2023-05-20T07:24:19;99803.34;;;21.39;70.97
7376;BME280;3728;42.266;24.944;2023-05-20T07:26:47;99802.34;;;21.18;73.32
7376;BME280;3728;42.266;24.944;2023-05-20T07:29:14;99797.59;;;21.04;73.73
7376;BME280;3728;42.266;24.944;2023-05-20T07:31:42;99798.09;;;20.83;73.68
7376;BME280;3728;42.266;24.944;2023-05-20T07:34:10;99798.78;;;20.77;74.95
7376;BME280;3728;42.266;24.944;2023-05-20T07:36:39;99801.22;;;20.89;76.16
7376;BME280;3728;42.266;24.944;2023-05-20T07:39:07;99793.69;;;21.24;77.61
7376;BME280;3728;42.266;24.944;2023-05-20T07:41:40;99796.09;;;21.76;73.82
7376;BME280;3728;42.266;24.944;2023-05-20T07:44:08;99804.75;;;22.03;72.40
7376;BME280;3728;42.266;24.944;2023-05-20T07:46:38;99801.81;;;22.19;70.89
7376;BME280;3728;42.266;24.944;2023-05-20T07:49:09;99808.84;;;22.37;72.04
7376;BME280;3728;42.266;24.944;2023-05-20T07:51:38;99807.78;;;22.49;70.57
7376;BME280;3728;42.266;24.944;2023-05-20T07:54:06;99808.63;;;22.64;69.33
7376;BME280;3728;42.266;24.944;2023-05-20T07:56:35;99795.00;;;22.79;65.95
7376;BME280;3728;42.266;24.944;2023-05-20T07:59:03;99800.34;;;22.79;67.95
7376;BME280;3728;42.266;24.944;2023-05-20T08:01:39;99790.19;;;23.20;59.29
7376;BME280;3728;42.266;24.944;2023-05-20T08:04:09;99789.84;;;23.25;58.95
7376;BME280;3728;42.266;24.944;2023-05-20T08:06:38;99789.19;;;23.53;56.69
7376;BME280;3728;42.266;24.944;2023-05-20T08:09:14;99793.81;;;23.80;54.85
7376;BME280;3728;42.266;24.944;2023-05-20T08:11:48;99793.38;;;23.43;54.85
7376;BME280;3728;42.266;24.944;2023-05-20T08:14:16;99799.16;;;23.73;51.92
7376;BME280;3728;42.266;24.944;2023-05-20T08:16:47;99795.34;;;24.10;53.77
7376;BME280;3728;42.266;24.944;2023-05-20T08:19:18;99802.59;;;24.27;52.35
7376;BME280;3728;42.266;24.944;2023-05-20T08:21:47;99800.59;;;24.73;51.80
7376;BME280;3728;42.266;24.944;2023-05-20T08:24:15;99794.81;;;24.92;51.19
7376;BME280;3728;42.266;24.944;2023-05-20T08:26:43;99793.59;;;25.14;50.96
7376;BME280;3728;42.266;24.944;2023-05-20T08:29:11;99795.25;;;24.70;51.59
7376;BME280;3728;42.266;24.944;2023-05-20T08:31:40;99799.84;;;24.76;50.47
7376;BME280;3728;42.266;24.944;2023-05-20T08:34:07;99796.72;;;24.99;48.46
7376;BME280;3728;42.266;24.944;2023-05-20T08:36:35;99793.94;;;25.24;45.77
7376;BME280;3728;42.266;24.944;2023-05-20T08:39:03;99792.88;;;25.03;47.47
7376;BME280;3728;42.266;24.944;2023-05-20T08:41:30;99789.81;;;25.01;48.04
7376;BME280;3728;42.266;24.944;2023-05-20T08:43:59;99785.94;;;25.13;45.80
7376;BME280;3728;42.266;24.944;2023-05-20T08:46:29;99792.69;;;25.39;44.95
7376;BME280;3728;42.266;24.944;2023-05-20T08:48:58;99791.28;;;25.17;49.43
7376;BME280;3728;42.266;24.944;2023-05-20T08:51:26;99791.72;;;25.04;47.25
7376;BME280;3728;42.266;24.944;2023-05-20T08:53:54;99796.03;;;24.70;50.22
7376;BME280;3728;42.266;24.944;2023-05-20T08:56:22;99801.78;;;24.79;50.59
7376;BME280;3728;42.266;24.944;2023-05-20T08:58:56;99789.41;;;25.10;49.03
7376;BME280;3728;42.266;24.944;2023-05-20T09:01:24;99786.72;;;25.10;48.60
7376;BME280;3728;42.266;24.944;2023-05-20T09:03:51;99793.88;;;25.34;49.74
7376;BME280;3728;42.266;24.944;2023-05-20T09:06:19;99789.97;;;25.53;49.81
7376;BME280;3728;42.266;24.944;2023-05-20T09:08:49;99799.47;;;25.64;48.64
7376;BME280;3728;42.266;24.944;2023-05-20T09:11:19;99784.88;;;25.69;49.15
7376;BME280;3728;42.266;24.944;2023-05-20T09:13:49;99786.81;;;26.16;47.44
7376;BME280;3728;42.266;24.944;2023-05-20T09:16:17;99785.84;;;25.93;48.21
7376;BME280;3728;42.266;24.944;2023-05-20T09:18:45;99781.00;;;25.73;48.00
7376;BME280;3728;42.266;24.944;2023-05-20T09:21:13;99787.88;;;25.78;47.35
7376;BME280;3728;42.266;24.944;2023-05-20T09:23:46;99776.25;;;25.33;48.05
7376;BME280;3728;42.266;24.944;2023-05-20T09:26:16;99782.81;;;25.25;49.31
7376;BME280;3728;42.266;24.944;2023-05-20T09:28:45;99779.84;;;25.02;51.35
7376;BME280;3728;42.266;24.944;2023-05-20T09:31:13;99779.81;;;25.12;49.91
7376;BME280;3728;42.266;24.944;2023-05-20T09:33:43;99780.44;;;25.41;48.80
7376;BME280;3728;42.266;24.944;2023-05-20T09:36:12;99776.97;;;25.41;50.20
7376;BME280;3728;42.266;24.944;2023-05-20T09:38:42;99778.94;;;25.30;50.25
7376;BME280;3728;42.266;24.944;2023-05-20T09:41:13;99773.34;;;25.03;49.33
7376;BME280;3728;42.266;24.944;2023-05-20T09:43:41;99770.28;;;25.04;46.25
7376;BME280;3728;42.266;24.944;2023-05-20T09:46:11;99763.78;;;25.02;46.63
7376;BME280;3728;42.266;24.944;2023-05-20T09:48:39;99775.28;;;24.99;44.51
7376;BME280;3728;42.266;24.944;2023-05-20T09:51:07;99761.59;;;24.72;46.08
7376;BME280;3728;42.266;24.944;2023-05-20T09:53:36;99758.91;;;24.69;45.93
7376;BME280;3728;42.266;24.944;2023-05-20T09:56:04;99763.94;;;24.53;45.81
7376;BME280;3728;42.266;24.944;2023-05-20T09:58:34;99755.91;;;24.45;46.13
7376;BME280;3728;42.266;24.944;2023-05-20T10:01:02;99754.72;;;24.64;46.85
7376;BME280;3728;42.266;24.944;2023-05-20T10:03:31;99762.69;;;24.85;46.93
7376;BME280;3728;42.266;24.944;2023-05-20T10:09:04;99765.38;;;24.89;46.57
7376;BME280;3728;42.266;24.944;2023-05-20T10:12:04;99756.22;;;24.79;44.53
7376;BME280;3728;42.266;24.944;2023-05-20T10:20:27;99751.25;;;24.81;46.92
7376;BME280;3728;42.266;24.944;2023-05-20T10:22:57;99758.69;;;25.22;47.07
7376;BME280;3728;42.266;24.944;2023-05-20T10:25:28;99750.22;;;25.34;44.29
7376;BME280;3728;42.266;24.944;2023-05-20T10:28:07;99753.66;;;25.34;45.47
7376;BME280;3728;42.266;24.944;2023-05-20T10:30:48;99759.88;;;25.17;47.16
7376;BME280;3728;42.266;24.944;2023-05-20T10:33:17;99753.84;;;24.92;47.16
7376;BME280;3728;42.266;24.944;2023-05-20T10:35:49;99748.56;;;24.74;47.85
7376;BME280;3728;42.266;24.944;2023-05-20T10:38:21;99747.75;;;24.91;48.69
7376;BME280;3728;42.266;24.944;2023-05-20T10:40:49;99740.22;;;25.38;47.48
7376;BME280;3728;42.266;24.944;2023-05-20T10:43:27;99742.72;;;25.66;45.13
7376;BME280;3728;42.266;24.944;2023-05-20T10:45:56;99740.88;;;25.56;44.82
7376;BME280;3728;42.266;24.944;2023-05-20T10:48:30;99745.47;;;25.59;46.15
7376;BME280;3728;42.266;24.944;2023-05-20T10:51:01;99737.94;;;25.33;44.79
7376;BME280;3728;42.266;24.944;2023-05-20T10:53:39;99746.03;;;25.26;45.39
7376;BME280;3728;42.266;24.944;2023-05-20T10:56:17;99741.59;;;24.98;47.56
7376;BME280;3728;42.266;24.944;2023-05-20T10:58:52;99742.34;;;25.02;47.43
7376;BME280;3728;42.266;24.944;2023-05-20T11:01:25;99743.97;;;24.82;48.62
7376;BME280;3728;42.266;24.944;2023-05-20T11:03:54;99745.09;;;24.84;45.40
7376;BME280;3728;42.266;24.944;2023-05-20T11:06:27;99740.50;;;24.85;46.10
7376;BME280;3728;42.266;24.944;2023-05-20T11:09:03;99740.06;;;24.97;47.07
7376;BME280;3728;42.266;24.944;2023-05-20T11:11:32;99730.03;;;25.11;46.52
7376;BME280;3728;42.266;24.944;2023-05-20T11:14:00;99726.66;;;25.00;47.21
7376;BME280;3728;42.266;24.944;2023-05-20T11:16:28;99726.53;;;25.18;44.06
7376;BME280;3728;42.266;24.944;2023-05-20T11:18:56;99723.13;;;25.14;46.34
7376;BME280;3728;42.266;24.944;2023-05-20T11:21:25;99718.03;;;25.30;44.81
7376;BME280;3728;42.266;24.944;2023-05-20T11:23:52;99728.75;;;25.34;44.24
7376;BME280;3728;42.266;24.944;2023-05-20T11:26:20;99723.34;;;25.41;47.56
7376;BME280;3728;42.266;24.944;2023-05-20T11:28:48;99727.41;;;25.63;47.67
7376;BME280;3728;42.266;24.944;2023-05-20T11:31:17;99725.13;;;25.61;46.78
7376;BME280;3728;42.266;24.944;2023-05-20T11:33:44;99726.66;;;25.62;45.93
7376;BME280;3728;42.266;24.944;2023-05-20T11:36:12;99722.16;;;25.49;46.22
7376;BME280;3728;42.266;24.944;2023-05-20T11:38:55;99716.03;;;25.48;45.13
7376;BME280;3728;42.266;24.944;2023-05-20T11:41:25;99708.44;;;25.33;45.35
7376;BME280;3728;42.266;24.944;2023-05-20T11:43:57;99715.34;;;25.30;46.36
7376;BME280;3728;42.266;24.944;2023-05-20T11:46:27;99714.50;;;25.47;45.12
7376;BME280;3728;42.266;24.944;2023-05-20T11:48:56;99705.63;;;25.98;45.28
7376;BME280;3728;42.266;24.944;2023-05-20T11:51:29;99706.69;;;26.45;42.36
7376;BME280;3728;42.266;24.944;2023-05-20T11:54:04;99712.78;;;27.13;42.82
7376;BME280;3728;42.266;24.944;2023-05-20T11:56:34;99703.38;;;27.25;42.37
7376;BME280;3728;42.266;24.944;2023-05-20T11:59:04;99700.44;;;27.42;42.48
7376;BME280;3728;42.266;24.944;2023-05-20T12:01:33;99690.75;;;27.22;39.63
7376;BME280;3728;42.266;24.944;2023-05-20T12:04:09;99700.47;;;27.16;41.42
7376;BME280;3728;42.266;24.944;2023-05-20T12:06:40;99693.03;;;26.96;41.60
7376;BME280;3728;42.266;24.944;2023-05-20T12:09:13;99687.44;;;26.84;43.84
7376;BME280;3728;42.266;24.944;2023-05-20T12:11:43;99683.28;;;26.79;40.88
7376;BME280;3728;42.266;24.944;2023-05-20T12:14:11;99684.97;;;26.66;43.43
7376;BME280;3728;42.266;24.944;2023-05-20T12:16:38;99678.69;;;26.80;41.30
7376;BME280;3728;42.266;24.944;2023-05-20T12:19:06;99681.47;;;26.69;40.60
7376;BME280;3728;42.266;24.944;2023-05-20T12:21:35;99685.50;;;26.54;43.22
7376;BME280;3728;42.266;24.944;2023-05-20T12:24:03;99679.81;;;26.15;43.43
7376;BME280;3728;42.266;24.944;2023-05-20T12:26:32;99689.88;;;26.04;42.69
7376;BME280;3728;42.266;24.944;2023-05-20T12:29:01;99684.50;;;25.63;43.63
7376;BME280;3728;42.266;24.944;2023-05-20T12:31:29;99687.00;;;25.36;44.17
7376;BME280;3728;42.266;24.944;2023-05-20T12:34:00;99688.81;;;24.91;45.68
7376;BME280;3728;42.266;24.944;2023-05-20T12:36:28;99689.63;;;24.81;46.90
7376;BME280;3728;42.266;24.944;2023-05-20T12:38:55;99686.59;;;24.62;47.66
7376;BME280;3728;42.266;24.944;2023-05-20T12:41:26;99689.31;;;24.55;47.63
7376;BME280;3728;42.266;24.944;2023-05-20T12:43:53;99686.75;;;24.30;48.10
7376;BME280;3728;42.266;24.944;2023-05-20T12:46:21;99685.63;;;24.13;48.20
7376;BME280;3728;42.266;24.944;2023-05-20T12:48:49;99684.13;;;23.95;48.24
7376;BME280;3728;42.266;24.944;2023-05-20T12:51:17;99671.53;;;23.81;49.67
7376;BME280;3728;42.266;24.944;2023-05-20T12:53:45;99667.31;;;23.69;49.25
7376;BME280;3728;42.266;24.944;2023-05-20T12:56:13;99675.69;;;24.03;47.51
7376;BME280;3728;42.266;24.944;2023-05-20T12:58:43;99671.09;;;23.97;48.90
7376;BME280;3728;42.266;24.944;2023-05-20T13:01:11;99664.63;;;23.76;49.84
7376;BME280;3728;42.266;24.944;2023-05-20T13:03:39;99666.16;;;23.77;49.88
7376;BME280;3728;42.266;24.944;2023-05-20T13:06:07;99659.28;;;23.76;50.47
7376;BME280;3728;42.266;24.944;2023-05-20T13:08:34;99656.22;;;23.89;49.76
7376;BME280;3728;42.266;24.944;2023-05-20T13:11:02;99657.75;;;23.83;50.79
7376;BME280;3728;42.266;24.944;2023-05-20T13:13:30;99645.13;;;23.94;51.74
7376;BME280;3728;42.266;24.944;2023-05-20T13:16:18;99637.09;;;23.87;51.86
7376;BME280;3728;42.266;24.944;2023-05-20T13:18:46;99631.81;;;23.69;53.35
7376;BME280;3728;42.266;24.944;2023-05-20T13:21:14;99622.59;;;23.80;52.95
7376;BME280;3728;42.266;24.944;2023-05-20T13:23:42;99617.25;;;23.77;52.77
7376;BME280;3728;42.266;24.944;2023-05-20T13:26:10;99612.66;;;23.88;50.83
7376;BME280;3728;42.266;24.944;2023-05-20T13:28:38;99613.06;;;23.72;53.26